sensor_id;sensor_type;location;lat;lon;timestamp;temperature;humidity
53294;DHT22;39181;53.440;5.644;2023-04-24T00:02:23;9.90;99.90
53294;DHT22;39181;53.440;5.644;2023-04-24T00:04:49;10.00;99.90
53294;DHT22;39181;53.440;5.644;2023-04-24T00:07:15;10.10;99.90
53294;DHT22;39181;53.440;5.644;2023-04-24T00:09:45;10.00;99.90
53294;DHT22;39181;53.440;5.644;2023-04-24T00:12:11;10.10;99.90
53294;DHT22;39181;53.440;5.644;2023-04-24T00:14:36;10.10;99.90
53294;DHT22;39181;53.440;5.644;2023-04-24T00:17:02;10.10;99.90
53294;DHT22;39181;53.440;5.644;2023-04-24T00:19:28;10.20;99.90
53294;DHT22;39181;53.440;5.644;2023-04-24T00:21:54;10.20;99.90
53294;DHT22;39181;53.440;5.644;2023-04-24T00:24:20;10.20;99.90
53294;DHT22;39181;53.440;5.644;2023-04-24T00:26:46;10.20;99.90
53294;DHT22;39181;53.440;5.644;2023-04-24T00:29:12;10.20;99.90
53294;DHT22;39181;53.440;5.644;2023-04-24T00:31:37;10.20;99.90
53294;DHT22;39181;53.440;5.644;2023-04-24T00:34:04;10.30;99.90
53294;DHT22;39181;53.440;5.644;2023-04-24T00:36:30;10.20;99.90
53294;DHT22;39181;53.440;5.644;2023-04-24T00:38:56;10.30;99.90
53294;DHT22;39181;53.440;5.644;2023-04-24T00:41:23;10.20;99.90
53294;DHT22;39181;53.440;5.644;2023-04-24T00:43:49;10.30;99.90
53294;DHT22;39181;53.440;5.644;2023-04-24T00:46:16;10.30;99.90
53294;DHT22;39181;53.440;5.644;2023-04-24T00:48:42;10.30;99.90
53294;DHT22;39181;53.440;5.644;2023-04-24T00:51:08;10.20;99.90
53294;DHT22;39181;53.440;5.644;2023-04-24T00:53:34;10.20;99.90
53294;DHT22;39181;53.440;5.644;2023-04-24T00:56:00;10.30;99.90
53294;DHT22;39181;53.440;5.644;2023-04-24T00:58:26;10.30;99.90
53294;DHT22;39181;53.440;5.644;2023-04-24T01:00:52;10.30;99.90
53294;DHT22;39181;53.440;5.644;2023-04-24T01:03:21;10.20;99.90
53294;DHT22;39181;53.440;5.644;2023-04-24T01:05:48;10.20;99.90
53294;DHT22;39181;53.440;5.644;2023-04-24T01:08:14;10.20;99.90
53294;DHT22;39181;53.440;5.644;2023-04-24T01:10:41;10.20;99.90
53294;DHT22;39181;53.440;5.644;2023-04-24T01:13:08;10.20;99.90
53294;DHT22;39181;53.440;5.644;2023-04-24T01:15:34;10.30;99.90
53294;DHT22;39181;53.440;5.644;2023-04-24T01:18:00;10.20;99.90
53294;DHT22;39181;53.440;5.644;2023-04-24T01:20:25;10.20;99.90
53294;DHT22;39181;53.440;5.644;2023-04-24T01:22:52;10.20;99.90
53294;DHT22;39181;53.440;5.644;2023-04-24T01:25:18;10.20;99.90
53294;DHT22;39181;53.440;5.644;2023-04-24T01:27:44;10.10;99.90
53294;DHT22;39181;53.440;5.644;2023-04-24T01:30:10;10.10;99.90
53294;DHT22;39181;53.440;5.644;2023-04-24T01:32:37;10.00;99.90
53294;DHT22;39181;53.440;5.644;2023-04-24T01:35:03;10.00;99.90
53294;DHT22;39181;53.440;5.644;2023-04-24T01:37:29;10.00;99.90
53294;DHT22;39181;53.440;5.644;2023-04-24T01:39:54;9.90;99.90
53294;DHT22;39181;53.440;5.644;2023-04-24T01:42:20;10.00;99.90
53294;DHT22;39181;53.440;5.644;2023-04-24T01:44:46;9.90;99.90
53294;DHT22;39181;53.440;5.644;2023-04-24T01:47:13;10.00;99.90
53294;DHT22;39181;53.440;5.644;2023-04-24T01:49:39;9.90;99.90
53294;DHT22;39181;53.440;5.644;2023-04-24T01:52:06;10.00;99.90
53294;DHT22;39181;53.440;5.644;2023-04-24T01:54:32;9.90;99.90
53294;DHT22;39181;53.440;5.644;2023-04-24T01:56:57;9.90;99.90
53294;DHT22;39181;53.440;5.644;2023-04-24T01:59:23;9.90;99.90
53294;DHT22;39181;53.440;5.644;2023-04-24T02:01:50;9.90;99.90
53294;DHT22;39181;53.440;5.644;2023-04-24T02:04:16;9.90;99.90
53294;DHT22;39181;53.440;5.644;2023-04-24T02:06:41;9.90;99.90
53294;DHT22;39181;53.440;5.644;2023-04-24T02:09:07;9.80;99.90
53294;DHT22;39181;53.440;5.644;2023-04-24T02:11:33;9.90;99.90
53294;DHT22;39181;53.440;5.644;2023-04-24T02:13:58;9.90;99.90
53294;DHT22;39181;53.440;5.644;2023-04-24T02:16:24;9.80;99.90
53294;DHT22;39181;53.440;5.644;2023-04-24T02:18:50;9.80;99.90
53294;DHT22;39181;53.440;5.644;2023-04-24T02:21:15;9.80;99.90
53294;DHT22;39181;53.440;5.644;2023-04-24T02:23:41;9.80;99.90
53294;DHT22;39181;53.440;5.644;2023-04-24T02:26:07;9.80;99.90
53294;DHT22;39181;53.440;5.644;2023-04-24T02:28:32;9.80;99.90
53294;DHT22;39181;53.440;5.644;2023-04-24T02:30:58;9.80;99.90
53294;DHT22;39181;53.440;5.644;2023-04-24T02:33:24;9.80;99.90
53294;DHT22;39181;53.440;5.644;2023-04-24T02:35:49;9.80;99.90
53294;DHT22;39181;53.440;5.644;2023-04-24T02:38:15;9.80;99.90
53294;DHT22;39181;53.440;5.644;2023-04-24T02:40:40;9.80;99.90
53294;DHT22;39181;53.440;5.644;2023-04-24T02:43:06;9.80;99.90
53294;DHT22;39181;53.440;5.644;2023-04-24T02:45:31;9.90;99.90
53294;DHT22;39181;53.440;5.644;2023-04-24T02:48:00;9.90;99.90
53294;DHT22;39181;53.440;5.644;2023-04-24T02:50:25;9.80;99.90
53294;DHT22;39181;53.440;5.644;2023-04-24T02:52:51;9.80;99.90
53294;DHT22;39181;53.440;5.644;2023-04-24T02:55:16;9.80;99.90
53294;DHT22;39181;53.440;5.644;2023-04-24T02:57:42;9.90;99.90
53294;DHT22;39181;53.440;5.644;2023-04-24T03:00:08;9.90;99.90
53294;DHT22;39181;53.440;5.644;2023-04-24T03:02:34;9.90;99.90
53294;DHT22;39181;53.440;5.644;2023-04-24T03:05:00;9.80;99.90
53294;DHT22;39181;53.440;5.644;2023-04-24T03:07:25;9.80;99.90
53294;DHT22;39181;53.440;5.644;2023-04-24T03:09:51;9.80;99.90
53294;DHT22;39181;53.440;5.644;2023-04-24T03:12:16;9.80;99.90
53294;DHT22;39181;53.440;5.644;2023-04-24T03:14:43;9.80;99.90
53294;DHT22;39181;53.440;5.644;2023-04-24T03:17:09;9.80;99.90
53294;DHT22;39181;53.440;5.644;2023-04-24T03:19:34;9.80;99.90
53294;DHT22;39181;53.440;5.644;2023-04-24T03:22:02;9.80;99.90
53294;DHT22;39181;53.440;5.644;2023-04-24T03:24:28;9.80;99.90
53294;DHT22;39181;53.440;5.644;2023-04-24T03:26:53;9.80;99.90
53294;DHT22;39181;53.440;5.644;2023-04-24T03:29:19;9.80;99.90
53294;DHT22;39181;53.440;5.644;2023-04-24T03:31:45;9.80;99.90
53294;DHT22;39181;53.440;5.644;2023-04-24T03:34:10;9.80;99.90
53294;DHT22;39181;53.440;5.644;2023-04-24T03:36:36;9.80;99.90
53294;DHT22;39181;53.440;5.644;2023-04-24T03:39:01;9.90;99.90
53294;DHT22;39181;53.440;5.644;2023-04-24T03:41:27;9.80;99.90
53294;DHT22;39181;53.440;5.644;2023-04-24T03:43:52;9.80;99.90
53294;DHT22;39181;53.440;5.644;2023-04-24T03:46:18;9.80;99.90
53294;DHT22;39181;53.440;5.644;2023-04-24T03:48:44;9.80;99.90
53294;DHT22;39181;53.440;5.644;2023-04-24T03:51:09;9.90;99.90
53294;DHT22;39181;53.440;5.644;2023-04-24T03:53:35;9.80;99.90
53294;DHT22;39181;53.440;5.644;2023-04-24T03:56:00;9.80;99.90
53294;DHT22;39181;53.440;5.644;2023-04-24T03:58:26;9.80;99.90
53294;DHT22;39181;53.440;5.644;2023-04-24T04:00:51;9.80;99.90
53294;DHT22;39181;53.440;5.644;2023-04-24T04:03:17;9.80;99.90
53294;DHT22;39181;53.440;5.644;2023-04-24T04:05:43;9.80;99.90
53294;DHT22;39181;53.440;5.644;2023-04-24T04:08:08;9.80;99.90
53294;DHT22;39181;53.440;5.644;2023-04-24T04:10:34;9.80;99.90
53294;DHT22;39181;53.440;5.644;2023-04-24T04:12:59;9.80;99.90
53294;DHT22;39181;53.440;5.644;2023-04-24T04:15:25;9.70;99.90
53294;DHT22;39181;53.440;5.644;2023-04-24T04:17:51;9.80;99.90
53294;DHT22;39181;53.440;5.644;2023-04-24T04:20:16;9.80;99.90
53294;DHT22;39181;53.440;5.644;2023-04-24T04:22:42;9.80;99.90
53294;DHT22;39181;53.440;5.644;2023-04-24T04:25:08;9.80;99.90
53294;DHT22;39181;53.440;5.644;2023-04-24T04:27:34;9.80;99.90
53294;DHT22;39181;53.440;5.644;2023-04-24T04:30:01;9.70;99.90
53294;DHT22;39181;53.440;5.644;2023-04-24T04:32:33;9.80;99.90
53294;DHT22;39181;53.440;5.644;2023-04-24T04:35:00;9.70;99.90
53294;DHT22;39181;53.440;5.644;2023-04-24T04:37:32;9.80;99.90
53294;DHT22;39181;53.440;5.644;2023-04-24T04:39:59;9.70;99.90
53294;DHT22;39181;53.440;5.644;2023-04-24T04:42:25;9.70;99.90
53294;DHT22;39181;53.440;5.644;2023-04-24T04:44:52;9.70;99.90
53294;DHT22;39181;53.440;5.644;2023-04-24T04:47:20;9.70;99.90
53294;DHT22;39181;53.440;5.644;2023-04-24T04:49:48;9.70;99.90
53294;DHT22;39181;53.440;5.644;2023-04-24T04:52:13;9.70;99.90
53294;DHT22;39181;53.440;5.644;2023-04-24T04:54:39;9.60;99.90
53294;DHT22;39181;53.440;5.644;2023-04-24T04:57:05;9.60;99.90
53294;DHT22;39181;53.440;5.644;2023-04-24T04:59:31;9.60;99.90
53294;DHT22;39181;53.440;5.644;2023-04-24T05:01:57;9.60;99.90
53294;DHT22;39181;53.440;5.644;2023-04-24T05:04:22;9.60;99.90
53294;DHT22;39181;53.440;5.644;2023-04-24T05:06:48;10.20;99.90
53294;DHT22;39181;53.440;5.644;2023-04-24T05:09:13;9.60;99.90
53294;DHT22;39181;53.440;5.644;2023-04-24T05:11:39;9.60;99.90
53294;DHT22;39181;53.440;5.644;2023-04-24T05:14:05;9.50;99.90
53294;DHT22;39181;53.440;5.644;2023-04-24T05:16:30;9.40;99.90
53294;DHT22;39181;53.440;5.644;2023-04-24T05:18:56;9.40;99.90
53294;DHT22;39181;53.440;5.644;2023-04-24T05:21:22;9.40;99.90
53294;DHT22;39181;53.440;5.644;2023-04-24T05:23:47;9.40;99.90
53294;DHT22;39181;53.440;5.644;2023-04-24T05:26:13;9.50;99.90
53294;DHT22;39181;53.440;5.644;2023-04-24T05:28:39;9.50;99.90
53294;DHT22;39181;53.440;5.644;2023-04-24T05:31:05;9.40;99.90
53294;DHT22;39181;53.440;5.644;2023-04-24T05:33:31;9.50;99.90
53294;DHT22;39181;53.440;5.644;2023-04-24T05:35:57;9.50;99.90
53294;DHT22;39181;53.440;5.644;2023-04-24T05:38:24;9.50;99.90
53294;DHT22;39181;53.440;5.644;2023-04-24T05:40:51;9.50;99.90
53294;DHT22;39181;53.440;5.644;2023-04-24T05:43:16;9.50;99.90
53294;DHT22;39181;53.440;5.644;2023-04-24T05:45:42;9.50;99.90
53294;DHT22;39181;53.440;5.644;2023-04-24T05:48:07;9.50;99.90
53294;DHT22;39181;53.440;5.644;2023-04-24T05:50:33;9.50;99.90
53294;DHT22;39181;53.440;5.644;2023-04-24T05:52:58;9.50;99.90
53294;DHT22;39181;53.440;5.644;2023-04-24T05:55:25;9.40;99.90
53294;DHT22;39181;53.440;5.644;2023-04-24T05:57:51;9.30;99.90
53294;DHT22;39181;53.440;5.644;2023-04-24T06:00:17;9.40;99.90
53294;DHT22;39181;53.440;5.644;2023-04-24T06:02:45;9.40;99.90
53294;DHT22;39181;53.440;5.644;2023-04-24T06:05:10;9.40;99.90
53294;DHT22;39181;53.440;5.644;2023-04-24T06:07:36;9.40;99.90
53294;DHT22;39181;53.440;5.644;2023-04-24T06:10:02;9.40;99.90
53294;DHT22;39181;53.440;5.644;2023-04-24T06:12:27;9.30;99.90
53294;DHT22;39181;53.440;5.644;2023-04-24T06:14:53;9.30;99.90
53294;DHT22;39181;53.440;5.644;2023-04-24T06:17:20;9.40;99.90
53294;DHT22;39181;53.440;5.644;2023-04-24T06:19:46;9.40;99.90
53294;DHT22;39181;53.440;5.644;2023-04-24T06:22:12;9.50;99.90
53294;DHT22;39181;53.440;5.644;2023-04-24T06:24:39;9.50;99.90
53294;DHT22;39181;53.440;5.644;2023-04-24T06:27:04;9.40;99.90
53294;DHT22;39181;53.440;5.644;2023-04-24T06:29:30;9.40;99.90
53294;DHT22;39181;53.440;5.644;2023-04-24T06:31:55;9.40;99.90
53294;DHT22;39181;53.440;5.644;2023-04-24T06:34:21;9.40;99.90
53294;DHT22;39181;53.440;5.644;2023-04-24T06:36:47;9.50;99.90
53294;DHT22;39181;53.440;5.644;2023-04-24T06:39:12;9.50;99.90
53294;DHT22;39181;53.440;5.644;2023-04-24T06:41:38;9.60;99.90
53294;DHT22;39181;53.440;5.644;2023-04-24T06:44:05;9.50;99.90
53294;DHT22;39181;53.440;5.644;2023-04-24T06:46:31;9.40;99.90
53294;DHT22;39181;53.440;5.644;2023-04-24T06:48:56;9.40;99.90
53294;DHT22;39181;53.440;5.644;2023-04-24T06:51:23;9.30;99.90
53294;DHT22;39181;53.440;5.644;2023-04-24T06:53:49;9.30;99.90
53294;DHT22;39181;53.440;5.644;2023-04-24T06:56:15;9.30;99.90
53294;DHT22;39181;53.440;5.644;2023-04-24T06:58:41;9.30;99.90
53294;DHT22;39181;53.440;5.644;2023-04-24T07:01:07;9.30;99.90
53294;DHT22;39181;53.440;5.644;2023-04-24T07:03:32;9.30;99.90
53294;DHT22;39181;53.440;5.644;2023-04-24T07:05:58;9.30;99.90
53294;DHT22;39181;53.440;5.644;2023-04-24T07:08:24;9.40;99.90
53294;DHT22;39181;53.440;5.644;2023-04-24T07:10:50;9.40;99.90
53294;DHT22;39181;53.440;5.644;2023-04-24T07:13:16;9.40;99.90
53294;DHT22;39181;53.440;5.644;2023-04-24T07:15:43;9.40;99.90
53294;DHT22;39181;53.440;5.644;2023-04-24T07:18:10;9.50;99.90
53294;DHT22;39181;53.440;5.644;2023-04-24T07:20:35;9.50;99.90
53294;DHT22;39181;53.440;5.644;2023-04-24T07:23:02;9.60;99.90
53294;DHT22;39181;53.440;5.644;2023-04-24T07:25:28;9.70;99.90
53294;DHT22;39181;53.440;5.644;2023-04-24T07:27:53;9.60;99.90
53294;DHT22;39181;53.440;5.644;2023-04-24T07:30:20;9.90;99.90
53294;DHT22;39181;53.440;5.644;2023-04-24T07:32:46;9.70;99.90
53294;DHT22;39181;53.440;5.644;2023-04-24T07:35:11;9.70;99.90
53294;DHT22;39181;53.440;5.644;2023-04-24T07:37:37;9.60;99.90
53294;DHT22;39181;53.440;5.644;2023-04-24T07:40:03;9.70;99.90
53294;DHT22;39181;53.440;5.644;2023-04-24T07:42:29;9.70;99.90
53294;DHT22;39181;53.440;5.644;2023-04-24T07:44:56;9.60;99.90
53294;DHT22;39181;53.440;5.644;2023-04-24T07:47:22;9.80;99.90
53294;DHT22;39181;53.440;5.644;2023-04-24T07:49:47;9.70;99.90
53294;DHT22;39181;53.440;5.644;2023-04-24T07:52:13;9.70;99.90
53294;DHT22;39181;53.440;5.644;2023-04-24T07:54:38;9.80;99.90
53294;DHT22;39181;53.440;5.644;2023-04-24T07:57:04;9.80;99.90
53294;DHT22;39181;53.440;5.644;2023-04-24T07:59:31;9.80;99.90
53294;DHT22;39181;53.440;5.644;2023-04-24T08:01:57;9.70;99.90
53294;DHT22;39181;53.440;5.644;2023-04-24T08:04:22;9.80;99.90
53294;DHT22;39181;53.440;5.644;2023-04-24T08:06:48;9.90;99.90
53294;DHT22;39181;53.440;5.644;2023-04-24T08:09:14;9.90;99.90
53294;DHT22;39181;53.440;5.644;2023-04-24T08:11:39;10.00;99.90
53294;DHT22;39181;53.440;5.644;2023-04-24T08:14:05;10.10;99.90
53294;DHT22;39181;53.440;5.644;2023-04-24T08:16:32;10.20;99.90
53294;DHT22;39181;53.440;5.644;2023-04-24T08:18:58;10.20;99.90
53294;DHT22;39181;53.440;5.644;2023-04-24T08:21:24;10.00;99.90
53294;DHT22;39181;53.440;5.644;2023-04-24T08:23:51;9.90;99.90
53294;DHT22;39181;53.440;5.644;2023-04-24T08:26:17;10.20;99.90
53294;DHT22;39181;53.440;5.644;2023-04-24T08:28:42;10.20;99.90
53294;DHT22;39181;53.440;5.644;2023-04-24T08:31:08;10.20;99.90
53294;DHT22;39181;53.440;5.644;2023-04-24T08:33:33;10.20;99.90
53294;DHT22;39181;53.440;5.644;2023-04-24T08:36:04;10.30;99.90
53294;DHT22;39181;53.440;5.644;2023-04-24T08:38:30;10.40;99.90
53294;DHT22;39181;53.440;5.644;2023-04-24T08:40:57;10.50;99.90
53294;DHT22;39181;53.440;5.644;2023-04-24T08:43:23;10.50;99.90
53294;DHT22;39181;53.440;5.644;2023-04-24T08:45:50;10.60;99.90
53294;DHT22;39181;53.440;5.644;2023-04-24T08:48:16;10.50;99.90
53294;DHT22;39181;53.440;5.644;2023-04-24T08:50:42;10.50;99.90
53294;DHT22;39181;53.440;5.644;2023-04-24T08:53:10;10.60;99.90
53294;DHT22;39181;53.440;5.644;2023-04-24T08:55:37;10.50;99.90
53294;DHT22;39181;53.440;5.644;2023-04-24T08:58:03;10.50;99.90
53294;DHT22;39181;53.440;5.644;2023-04-24T09:00:29;10.50;99.90
53294;DHT22;39181;53.440;5.644;2023-04-24T09:02:56;10.50;99.90
53294;DHT22;39181;53.440;5.644;2023-04-24T09:05:22;10.60;99.90
53294;DHT22;39181;53.440;5.644;2023-04-24T09:07:56;10.70;99.90
53294;DHT22;39181;53.440;5.644;2023-04-24T09:10:23;10.90;99.90
53294;DHT22;39181;53.440;5.644;2023-04-24T09:12:52;11.00;99.90
53294;DHT22;39181;53.440;5.644;2023-04-24T09:15:19;11.10;99.90
53294;DHT22;39181;53.440;5.644;2023-04-24T09:17:46;11.10;99.90
53294;DHT22;39181;53.440;5.644;2023-04-24T09:20:11;11.10;99.90
53294;DHT22;39181;53.440;5.644;2023-04-24T09:22:37;11.20;99.90
53294;DHT22;39181;53.440;5.644;2023-04-24T09:25:05;11.20;99.90
53294;DHT22;39181;53.440;5.644;2023-04-24T09:27:32;11.30;99.90
53294;DHT22;39181;53.440;5.644;2023-04-24T09:29:58;11.40;99.90
53294;DHT22;39181;53.440;5.644;2023-04-24T09:32:25;11.40;99.90
53294;DHT22;39181;53.440;5.644;2023-04-24T09:35:06;11.40;99.90
53294;DHT22;39181;53.440;5.644;2023-04-24T09:37:36;11.40;99.90
53294;DHT22;39181;53.440;5.644;2023-04-24T09:40:14;11.60;99.90
53294;DHT22;39181;53.440;5.644;2023-04-24T09:42:46;11.60;99.90
53294;DHT22;39181;53.440;5.644;2023-04-24T09:45:16;11.60;99.90
53294;DHT22;39181;53.440;5.644;2023-04-24T09:47:42;11.50;99.90
53294;DHT22;39181;53.440;5.644;2023-04-24T09:50:15;11.70;99.90
53294;DHT22;39181;53.440;5.644;2023-04-24T09:52:46;11.80;99.90
53294;DHT22;39181;53.440;5.644;2023-04-24T09:55:18;11.80;99.90
53294;DHT22;39181;53.440;5.644;2023-04-24T09:57:51;11.80;99.90
53294;DHT22;39181;53.440;5.644;2023-04-24T10:00:20;11.90;99.90
53294;DHT22;39181;53.440;5.644;2023-04-24T10:02:50;11.90;99.90
53294;DHT22;39181;53.440;5.644;2023-04-24T10:05:16;12.10;99.90
53294;DHT22;39181;53.440;5.644;2023-04-24T10:07:43;12.10;99.90
53294;DHT22;39181;53.440;5.644;2023-04-24T10:10:09;12.20;99.90
53294;DHT22;39181;53.440;5.644;2023-04-24T10:12:35;12.30;99.90
53294;DHT22;39181;53.440;5.644;2023-04-24T10:15:01;12.40;99.90
53294;DHT22;39181;53.440;5.644;2023-04-24T10:17:28;12.50;99.90
53294;DHT22;39181;53.440;5.644;2023-04-24T10:19:55;12.50;99.90
53294;DHT22;39181;53.440;5.644;2023-04-24T10:22:21;12.50;99.90
53294;DHT22;39181;53.440;5.644;2023-04-24T10:24:49;12.40;99.90
53294;DHT22;39181;53.440;5.644;2023-04-24T10:27:16;12.30;99.90
53294;DHT22;39181;53.440;5.644;2023-04-24T10:29:43;12.30;99.90
53294;DHT22;39181;53.440;5.644;2023-04-24T10:32:09;12.40;99.90
53294;DHT22;39181;53.440;5.644;2023-04-24T10:34:36;12.30;99.90
53294;DHT22;39181;53.440;5.644;2023-04-24T10:37:02;12.20;99.90
53294;DHT22;39181;53.440;5.644;2023-04-24T10:39:29;12.10;99.90
53294;DHT22;39181;53.440;5.644;2023-04-24T10:41:56;12.00;99.90
53294;DHT22;39181;53.440;5.644;2023-04-24T10:44:23;12.00;99.90
53294;DHT22;39181;53.440;5.644;2023-04-24T10:46:54;12.00;99.90
53294;DHT22;39181;53.440;5.644;2023-04-24T10:49:30;11.80;99.90
53294;DHT22;39181;53.440;5.644;2023-04-24T10:52:00;11.50;99.90
53294;DHT22;39181;53.440;5.644;2023-04-24T10:54:28;11.30;99.90
53294;DHT22;39181;53.440;5.644;2023-04-24T10:59:46;11.20;99.90
53294;DHT22;39181;53.440;5.644;2023-04-24T11:02:14;11.20;99.90
53294;DHT22;39181;53.440;5.644;2023-04-24T11:04:41;11.30;99.90
53294;DHT22;39181;53.440;5.644;2023-04-24T11:07:09;11.30;99.90
53294;DHT22;39181;53.440;5.644;2023-04-24T11:09:36;11.40;99.90
53294;DHT22;39181;53.440;5.644;2023-04-24T11:12:09;11.40;99.90
53294;DHT22;39181;53.440;5.644;2023-04-24T11:14:59;11.50;99.90
53294;DHT22;39181;53.440;5.644;2023-04-24T11:17:36;11.40;99.90
53294;DHT22;39181;53.440;5.644;2023-04-24T11:20:07;11.40;99.90
53294;DHT22;39181;53.440;5.644;2023-04-24T11:22:35;11.40;99.90
53294;DHT22;39181;53.440;5.644;2023-04-24T11:25:02;11.30;99.90
53294;DHT22;39181;53.440;5.644;2023-04-24T11:27:31;11.20;99.90
53294;DHT22;39181;53.440;5.644;2023-04-24T11:32:27;11.10;99.90
53294;DHT22;39181;53.440;5.644;2023-04-24T11:35:01;11.00;99.90
53294;DHT22;39181;53.440;5.644;2023-04-24T11:37:39;11.10;99.90
53294;DHT22;39181;53.440;5.644;2023-04-24T11:40:07;11.20;99.90
53294;DHT22;39181;53.440;5.644;2023-04-24T11:42:42;11.30;99.90
53294;DHT22;39181;53.440;5.644;2023-04-24T11:45:21;11.50;99.90
53294;DHT22;39181;53.440;5.644;2023-04-24T11:47:47;11.70;99.90
53294;DHT22;39181;53.440;5.644;2023-04-24T11:50:14;11.90;99.90
53294;DHT22;39181;53.440;5.644;2023-04-24T11:52:45;12.00;99.90
53294;DHT22;39181;53.440;5.644;2023-04-24T11:57:39;11.90;99.90
53294;DHT22;39181;53.440;5.644;2023-04-24T12:00:21;11.70;99.90
53294;DHT22;39181;53.440;5.644;2023-04-24T12:02:48;11.50;99.90
53294;DHT22;39181;53.440;5.644;2023-04-24T12:05:25;11.30;99.90
53294;DHT22;39181;53.440;5.644;2023-04-24T12:07:52;11.40;99.90
53294;DHT22;39181;53.440;5.644;2023-04-24T12:10:25;11.40;99.90
53294;DHT22;39181;53.440;5.644;2023-04-24T12:12:51;11.60;99.90
53294;DHT22;39181;53.440;5.644;2023-04-24T12:15:21;11.80;99.90
53294;DHT22;39181;53.440;5.644;2023-04-24T12:17:47;11.90;99.90
53294;DHT22;39181;53.440;5.644;2023-04-24T12:20:13;11.80;99.90
53294;DHT22;39181;53.440;5.644;2023-04-24T12:22:51;11.70;99.90
53294;DHT22;39181;53.440;5.644;2023-04-24T12:25:21;11.50;99.90
53294;DHT22;39181;53.440;5.644;2023-04-24T12:27:53;11.40;99.90
53294;DHT22;39181;53.440;5.644;2023-04-24T12:30:19;11.30;99.90
53294;DHT22;39181;53.440;5.644;2023-04-24T12:32:49;11.10;99.90
53294;DHT22;39181;53.440;5.644;2023-04-24T12:35:24;11.30;99.90
53294;DHT22;39181;53.440;5.644;2023-04-24T12:37:49;11.40;99.90
53294;DHT22;39181;53.440;5.644;2023-04-24T12:40:16;11.50;99.90
53294;DHT22;39181;53.440;5.644;2023-04-24T12:42:49;11.50;99.90
53294;DHT22;39181;53.440;5.644;2023-04-24T12:45:16;11.30;99.90
53294;DHT22;39181;53.440;5.644;2023-04-24T12:47:43;11.20;99.90
53294;DHT22;39181;53.440;5.644;2023-04-24T12:50:10;10.90;99.90
53294;DHT22;39181;53.440;5.644;2023-04-24T12:52:36;10.70;99.90
53294;DHT22;39181;53.440;5.644;2023-04-24T12:55:02;10.70;99.90
53294;DHT22;39181;53.440;5.644;2023-04-24T12:57:29;10.70;99.90
53294;DHT22;39181;53.440;5.644;2023-04-24T12:59:57;10.80;99.90
53294;DHT22;39181;53.440;5.644;2023-04-24T13:02:24;10.90;99.90
53294;DHT22;39181;53.440;5.644;2023-04-24T13:04:50;11.00;99.90
53294;DHT22;39181;53.440;5.644;2023-04-24T13:07:16;11.10;99.90
53294;DHT22;39181;53.440;5.644;2023-04-24T13:09:43;11.30;99.90
53294;DHT22;39181;53.440;5.644;2023-04-24T13:12:10;11.40;99.90
53294;DHT22;39181;53.440;5.644;2023-04-24T13:14:37;11.50;99.90
53294;DHT22;39181;53.440;5.644;2023-04-24T13:17:03;11.50;99.90
53294;DHT22;39181;53.440;5.644;2023-04-24T13:19:29;11.40;99.90
53294;DHT22;39181;53.440;5.644;2023-04-24T13:21:56;11.30;99.90
53294;DHT22;39181;53.440;5.644;2023-04-24T13:24:22;11.30;99.90
53294;DHT22;39181;53.440;5.644;2023-04-24T13:26:52;11.20;99.90
53294;DHT22;39181;53.440;5.644;2023-04-24T13:29:18;11.00;99.90
53294;DHT22;39181;53.440;5.644;2023-04-24T13:31:43;10.80;99.90
53294;DHT22;39181;53.440;5.644;2023-04-24T13:34:09;10.60;99.90
53294;DHT22;39181;53.440;5.644;2023-04-24T13:36:35;10.60;99.90
53294;DHT22;39181;53.440;5.644;2023-04-24T13:39:02;10.60;99.90
53294;DHT22;39181;53.440;5.644;2023-04-24T13:41:29;10.70;99.90
53294;DHT22;39181;53.440;5.644;2023-04-24T13:43:55;10.70;99.90
53294;DHT22;39181;53.440;5.644;2023-04-24T13:46:21;10.50;99.90
53294;DHT22;39181;53.440;5.644;2023-04-24T13:48:46;10.40;99.90
53294;DHT22;39181;53.440;5.644;2023-04-24T13:51:12;10.40;99.90
53294;DHT22;39181;53.440;5.644;2023-04-24T13:53:38;10.30;99.90
53294;DHT22;39181;53.440;5.644;2023-04-24T13:56:04;10.30;99.90
53294;DHT22;39181;53.440;5.644;2023-04-24T13:58:31;10.30;99.90
53294;DHT22;39181;53.440;5.644;2023-04-24T14:00:57;10.40;99.90
53294;DHT22;39181;53.440;5.644;2023-04-24T14:03:23;10.40;99.90
53294;DHT22;39181;53.440;5.644;2023-04-24T14:05:48;10.50;99.90
53294;DHT22;39181;53.440;5.644;2023-04-24T14:08:14;10.40;99.90
53294;DHT22;39181;53.440;5.644;2023-04-24T14:10:40;10.50;99.90
53294;DHT22;39181;53.440;5.644;2023-04-24T14:13:05;10.50;99.90
53294;DHT22;39181;53.440;5.644;2023-04-24T14:15:31;10.70;99.90
53294;DHT22;39181;53.440;5.644;2023-04-24T14:17:57;10.70;99.90
53294;DHT22;39181;53.440;5.644;2023-04-24T14:20:23;10.60;99.90
53294;DHT22;39181;53.440;5.644;2023-04-24T14:22:48;10.60;99.90
53294;DHT22;39181;53.440;5.644;2023-04-24T14:25:14;10.60;99.90
53294;DHT22;39181;53.440;5.644;2023-04-24T14:27:40;10.60;99.90
53294;DHT22;39181;53.440;5.644;2023-04-24T14:30:07;10.50;99.90
53294;DHT22;39181;53.440;5.644;2023-04-24T14:32:32;10.40;99.90
53294;DHT22;39181;53.440;5.644;2023-04-24T14:34:58;10.40;99.90
53294;DHT22;39181;53.440;5.644;2023-04-24T14:37:24;10.40;99.90
53294;DHT22;39181;53.440;5.644;2023-04-24T14:39:49;10.40;99.90
53294;DHT22;39181;53.440;5.644;2023-04-24T14:42:15;10.30;99.90
53294;DHT22;39181;53.440;5.644;2023-04-24T14:44:42;10.30;99.90
53294;DHT22;39181;53.440;5.644;2023-04-24T14:47:07;10.20;99.90
53294;DHT22;39181;53.440;5.644;2023-04-24T14:49:33;10.00;99.90
53294;DHT22;39181;53.440;5.644;2023-04-24T14:51:59;9.90;99.90
53294;DHT22;39181;53.440;5.644;2023-04-24T14:54:24;9.80;99.90
53294;DHT22;39181;53.440;5.644;2023-04-24T14:56:50;9.80;99.90
53294;DHT22;39181;53.440;5.644;2023-04-24T14:59:16;10.00;99.90
53294;DHT22;39181;53.440;5.644;2023-04-24T15:01:42;10.00;99.90
53294;DHT22;39181;53.440;5.644;2023-04-24T15:04:07;10.00;99.90
53294;DHT22;39181;53.440;5.644;2023-04-24T15:06:33;10.00;99.90
53294;DHT22;39181;53.440;5.644;2023-04-24T15:08:58;10.10;99.90
53294;DHT22;39181;53.440;5.644;2023-04-24T15:11:24;10.00;99.90
53294;DHT22;39181;53.440;5.644;2023-04-24T15:13:50;10.10;99.90
53294;DHT22;39181;53.440;5.644;2023-04-24T15:16:15;10.00;99.90
53294;DHT22;39181;53.440;5.644;2023-04-24T15:18:41;9.90;99.90
53294;DHT22;39181;53.440;5.644;2023-04-24T15:21:07;9.90;99.90
53294;DHT22;39181;53.440;5.644;2023-04-24T15:23:33;9.90;99.90
53294;DHT22;39181;53.440;5.644;2023-04-24T15:25:58;9.80;99.90
53294;DHT22;39181;53.440;5.644;2023-04-24T15:28:27;9.80;99.90
53294;DHT22;39181;53.440;5.644;2023-04-24T15:30:53;9.90;99.90
53294;DHT22;39181;53.440;5.644;2023-04-24T15:33:18;9.90;99.90
53294;DHT22;39181;53.440;5.644;2023-04-24T15:35:44;9.90;99.90
53294;DHT22;39181;53.440;5.644;2023-04-24T15:38:10;10.00;99.90
53294;DHT22;39181;53.440;5.644;2023-04-24T15:40:35;10.10;99.90
53294;DHT22;39181;53.440;5.644;2023-04-24T15:43:01;9.90;99.90